createdAt,value
2023-02-19T00:00:15.256Z,82.05
2023-02-19T00:03:04.241Z,84.30
2023-02-19T00:05:35.708Z,85.37
2023-02-19T00:08:05.034Z,84.68
2023-02-19T00:10:33.841Z,86.80
2023-02-19T00:13:02.624Z,87.35
2023-02-19T00:15:34.549Z,87.18
2023-02-19T00:18:03.178Z,87.39
2023-02-19T00:20:31.869Z,88.12
2023-02-19T00:23:00.749Z,88.74
2023-02-19T00:25:29.444Z,89.15
2023-02-19T00:27:58.122Z,88.71
2023-02-19T00:30:27.164Z,89.82
2023-02-19T00:32:56.933Z,89.57
2023-02-19T00:35:25.749Z,88.88
2023-02-19T00:37:54.416Z,88.41
2023-02-19T00:40:23.038Z,88.89
2023-02-19T00:42:51.905Z,88.91
2023-02-19T00:45:20.594Z,88.94
2023-02-19T00:47:49.283Z,89.37
2023-02-19T00:50:17.984Z,88.63
2023-02-19T00:52:46.650Z,88.90
2023-02-19T00:55:15.408Z,89.16
2023-02-19T00:57:44.101Z,89.31
2023-02-19T01:00:13.841Z,89.14
2023-02-19T01:02:42.620Z,88.19
2023-02-19T01:05:11.378Z,88.34
2023-02-19T01:07:40.277Z,88.71
2023-02-19T01:10:10.179Z,90.05
2023-02-19T01:12:38.870Z,90.38
2023-02-19T01:15:08.759Z,90.01
2023-02-19T01:17:37.422Z,90.27
2023-02-19T01:20:07.313Z,90.12
2023-02-19T01:22:36.198Z,89.04
2023-02-19T01:25:05.318Z,88.36
2023-02-19T01:27:34.255Z,87.50
2023-02-19T01:30:03.612Z,87.31
2023-02-19T01:32:32.282Z,87.09
2023-02-19T01:35:01.345Z,86.05
2023-02-19T01:37:31.149Z,85.90
2023-02-19T01:39:59.728Z,85.36
2023-02-19T01:42:28.475Z,85.44
2023-02-19T01:45:34.309Z,85.25
2023-02-19T01:48:09.515Z,84.57
2023-02-19T01:50:50.076Z,84.82
2023-02-19T01:53:26.184Z,84.35
2023-02-19T01:56:00.249Z,84.06
2023-02-19T01:58:33.915Z,84.12
2023-02-19T02:01:07.394Z,84.27
2023-02-19T02:03:39.864Z,84.42
2023-02-19T02:06:24.953Z,84.23
2023-02-19T02:09:16.548Z,85.40
2023-02-19T02:11:51.259Z,84.66
2023-02-19T02:14:26.896Z,84.67
2023-02-19T02:17:13.961Z,84.54
2023-02-19T02:20:26.717Z,84.24
2023-02-19T02:23:19.686Z,83.74
2023-02-19T02:26:33.023Z,83.84
2023-02-19T02:29:56.570Z,83.96
2023-02-19T02:32:33.679Z,85.38
2023-02-19T02:35:10.827Z,86.90
2023-02-19T02:37:44.463Z,86.50
2023-02-19T02:40:13.469Z,86.85
2023-02-19T02:42:43.581Z,87.15
2023-02-19T02:45:36.880Z,88.27
2023-02-19T02:48:35.529Z,89.27
2023-02-19T02:51:14.655Z,90.20
2023-02-19T02:54:17.582Z,90.59
2023-02-19T02:56:48.712Z,90.62
2023-02-19T02:59:22.596Z,90.21
2023-02-19T03:02:25.654Z,89.46
2023-02-19T03:05:34.403Z,89.50
2023-02-19T03:08:12.613Z,89.44
2023-02-19T03:10:51.113Z,88.33
2023-02-19T03:14:18.096Z,88.02
2023-02-19T03:17:42.860Z,87.49
2023-02-19T03:20:20.373Z,87.53
2023-02-19T03:22:51.320Z,87.19
2023-02-19T03:25:44.065Z,87.15
2023-02-19T03:28:17.985Z,86.52
2023-02-19T03:30:52.797Z,86.35
2023-02-19T03:33:29.353Z,86.27
2023-02-19T03:36:04.680Z,85.70
2023-02-19T03:38:49.881Z,85.50
2023-02-19T03:41:57.990Z,85.24
2023-02-19T03:44:47.873Z,84.99
2023-02-19T03:47:33.306Z,84.61
2023-02-19T03:50:09.117Z,84.63
2023-02-19T03:52:43.877Z,84.34
2023-02-19T03:55:43.894Z,84.42
2023-02-19T03:58:23.188Z,84.37
2023-02-19T04:01:18.637Z,83.87
2023-02-19T04:04:02.034Z,84.05
2023-02-19T04:06:33.963Z,84.38
2023-02-19T04:09:09.168Z,83.73
2023-02-19T04:11:40.018Z,83.94
2023-02-19T04:14:19.718Z,84.21
2023-02-19T04:17:01.542Z,83.63
2023-02-19T04:19:35.525Z,83.62
2023-02-19T04:22:07.130Z,83.86
2023-02-19T04:24:47.905Z,84.48
2023-02-19T04:27:17.513Z,85.12
2023-02-19T04:29:46.338Z,84.69
2023-02-19T04:32:15.461Z,85.21
2023-02-19T04:34:44.215Z,85.07
2023-02-19T04:37:13.528Z,85.06
2023-02-19T04:39:42.189Z,85.23
2023-02-19T04:42:11.584Z,84.77
2023-02-19T04:44:40.316Z,84.99
2023-02-19T04:47:09.287Z,85.37
2023-02-19T04:49:38.097Z,85.43
2023-02-19T04:52:07.264Z,84.79
2023-02-19T04:54:36.170Z,84.74
2023-02-19T04:57:04.774Z,84.88
2023-02-19T04:59:33.831Z,84.62
2023-02-19T05:02:02.555Z,84.68
2023-02-19T05:04:31.557Z,84.70
2023-02-19T05:07:00.191Z,84.63
2023-02-19T05:09:28.830Z,84.96
2023-02-19T05:11:57.778Z,84.71
2023-02-19T05:14:26.357Z,85.20
2023-02-19T05:16:55.153Z,85.04
2023-02-19T05:19:24.012Z,85.18
2023-02-19T05:21:52.848Z,85.03
2023-02-19T05:24:21.787Z,85.64
2023-02-19T05:26:51.384Z,86.54
2023-02-19T05:29:20.416Z,88.38
2023-02-19T05:31:49.606Z,89.30
2023-02-19T05:34:18.508Z,89.79
2023-02-19T05:36:47.220Z,90.56
2023-02-19T05:39:15.977Z,91.43
2023-02-19T05:41:44.632Z,91.37
2023-02-19T05:44:13.276Z,91.74
2023-02-19T05:46:42.067Z,91.55
2023-02-19T05:49:10.820Z,91.18
2023-02-19T05:51:39.711Z,91.01
2023-02-19T05:54:08.706Z,90.94
2023-02-19T05:56:42.498Z,91.47
2023-02-19T05:59:24.326Z,91.04
2023-02-19T06:01:55.141Z,91.11
2023-02-19T06:04:23.784Z,90.73
2023-02-19T06:06:52.471Z,90.81
2023-02-19T06:09:21.301Z,90.39
2023-02-19T06:11:49.942Z,90.49
2023-02-19T06:14:18.573Z,90.70
2023-02-19T06:16:47.225Z,90.22
2023-02-19T06:19:15.866Z,90.02
2023-02-19T06:21:44.548Z,89.75
2023-02-19T06:24:13.276Z,89.95
2023-02-19T06:26:41.995Z,89.65
2023-02-19T06:29:10.583Z,88.49
2023-02-19T06:31:39.441Z,88.41
2023-02-19T06:34:08.190Z,88.27
2023-02-19T06:36:37.089Z,87.87
2023-02-19T06:39:05.917Z,87.05
2023-02-19T06:41:35.688Z,86.46
2023-02-19T06:44:04.164Z,85.80
2023-02-19T06:46:32.863Z,84.13
2023-02-19T06:49:04.202Z,82.17
2023-02-19T06:51:33.294Z,80.82
2023-02-19T06:54:04.815Z,80.66
2023-02-19T06:56:42.270Z,81.73
2023-02-19T06:59:14.448Z,82.41
2023-02-19T07:01:43.960Z,83.43
2023-02-19T07:04:12.646Z,83.71
2023-02-19T07:06:41.488Z,85.13
2023-02-19T07:09:11.428Z,86.06
2023-02-19T07:11:40.612Z,86.27
2023-02-19T07:14:17.603Z,86.27
2023-02-19T07:16:47.670Z,84.96
2023-02-19T07:19:16.756Z,85.11
2023-02-19T07:21:45.393Z,85.83
2023-02-19T07:24:14.045Z,85.50
2023-02-19T07:26:42.814Z,84.67
2023-02-19T07:29:11.428Z,83.54
2023-02-19T07:31:40.304Z,83.07
2023-02-19T07:34:09.149Z,83.44
2023-02-19T07:36:37.813Z,81.12
2023-02-19T07:39:08.082Z,79.20
2023-02-19T07:41:38.442Z,78.06
2023-02-19T07:44:07.858Z,76.89
2023-02-19T07:46:36.505Z,77.61
2023-02-19T07:49:07.466Z,77.03
2023-02-19T07:51:36.187Z,75.89
2023-02-19T07:54:05.587Z,75.12
2023-02-19T07:56:35.078Z,76.08
2023-02-19T07:59:04.073Z,75.96
2023-02-19T08:01:51.206Z,75.60
2023-02-19T08:04:19.879Z,74.58
2023-02-19T08:06:48.467Z,74.66
2023-02-19T08:09:17.107Z,75.78
2023-02-19T08:12:04.028Z,74.62
2023-02-19T08:14:32.786Z,73.73
2023-02-19T08:17:01.551Z,73.67
2023-02-19T08:19:30.241Z,73.30
2023-02-19T08:22:00.019Z,74.44
2023-02-19T08:24:28.808Z,74.48
2023-02-19T08:26:57.591Z,75.53
2023-02-19T08:29:26.561Z,74.93
2023-02-19T08:31:55.193Z,74.88
2023-02-19T08:34:24.410Z,74.95
2023-02-19T08:36:53.113Z,74.89
2023-02-19T08:39:21.914Z,75.03
2023-02-19T08:41:50.828Z,74.14
2023-02-19T08:44:19.484Z,72.51
2023-02-19T08:46:48.121Z,73.09
2023-02-19T08:49:16.740Z,71.53
2023-02-19T08:51:45.364Z,70.12
2023-02-19T08:54:13.952Z,69.22
2023-02-19T08:56:42.528Z,69.52
2023-02-19T08:59:11.163Z,69.89
2023-02-19T09:01:39.815Z,71.24
2023-02-19T09:04:12.547Z,69.31
2023-02-19T09:06:41.253Z,69.20
2023-02-19T09:09:09.823Z,69.21
2023-02-19T09:11:41.658Z,68.57
2023-02-19T09:14:10.565Z,69.46
2023-02-19T09:16:39.134Z,70.79
2023-02-19T09:19:07.790Z,69.06
2023-02-19T09:21:36.465Z,71.10
2023-02-19T09:24:05.312Z,71.45
2023-02-19T09:26:33.950Z,70.64
2023-02-19T09:29:05.150Z,68.92
2023-02-19T09:31:35.419Z,69.68
2023-02-19T09:34:05.806Z,70.72
2023-02-19T09:36:34.643Z,69.95
2023-02-19T09:39:04.820Z,70.69
2023-02-19T09:41:45.541Z,69.38
2023-02-19T09:44:44.734Z,68.38
2023-02-19T09:47:29.813Z,69.82
2023-02-19T09:50:08.376Z,68.74
2023-02-19T09:52:50.115Z,69.67
2023-02-19T09:55:40.029Z,70.01
2023-02-19T09:58:35.636Z,70.40
2023-02-19T10:01:08.040Z,69.23
2023-02-19T10:03:41.674Z,68.95
2023-02-19T10:06:23.957Z,70.17
2023-02-19T10:09:00.590Z,68.53
2023-02-19T10:11:29.394Z,70.10
2023-02-19T10:14:09.619Z,70.88
2023-02-19T10:16:43.636Z,70.09
2023-02-19T10:19:13.941Z,69.39
2023-02-19T10:21:43.766Z,68.48
2023-02-19T10:24:31.351Z,68.35
2023-02-19T10:27:01.123Z,68.13
2023-02-19T10:29:30.031Z,67.03
2023-02-19T10:32:45.029Z,68.71
2023-02-19T10:35:16.575Z,67.30
2023-02-19T10:37:50.078Z,68.89
2023-02-19T10:40:26.437Z,67.41
2023-02-19T10:43:01.467Z,66.30
2023-02-19T10:45:40.946Z,66.60
2023-02-19T10:48:22.159Z,65.35
2023-02-19T10:50:58.407Z,66.17
2023-02-19T10:53:52.154Z,65.54
2023-02-19T10:56:30.116Z,67.13
2023-02-19T10:59:27.942Z,65.87
2023-02-19T11:02:16.055Z,65.43
2023-02-19T11:05:17.287Z,65.33
2023-02-19T11:07:49.914Z,65.86
2023-02-19T11:10:31.098Z,66.50
2023-02-19T11:13:03.568Z,66.53
2023-02-19T11:15:35.829Z,66.76
2023-02-19T11:18:08.190Z,66.32
2023-02-19T11:20:36.881Z,66.83
2023-02-19T11:23:18.030Z,66.89
2023-02-19T11:25:48.975Z,67.17
2023-02-19T11:28:18.364Z,67.73
2023-02-19T11:30:47.920Z,67.97
2023-02-19T11:33:16.382Z,67.78
2023-02-19T11:35:46.571Z,66.99
2023-02-19T11:38:19.448Z,66.27
2023-02-19T11:41:24.192Z,67.03
2023-02-19T11:44:30.476Z,67.00
2023-02-19T11:47:38.353Z,67.08
2023-02-19T11:50:39.897Z,66.92
2023-02-19T11:53:32.314Z,67.67
2023-02-19T11:56:34.321Z,67.71
2023-02-19T11:59:32.154Z,67.75
2023-02-19T12:02:17.289Z,68.29
2023-02-19T12:05:31.426Z,68.37
2023-02-19T12:08:22.217Z,68.49
2023-02-19T12:11:21.843Z,68.56
2023-02-19T12:14:19.232Z,68.56
2023-02-19T12:17:15.534Z,68.17
2023-02-19T12:20:17.598Z,68.54
2023-02-19T12:23:19.855Z,68.47
2023-02-19T12:26:30.780Z,68.29
2023-02-19T12:29:36.425Z,68.53
2023-02-19T12:32:09.215Z,68.29
2023-02-19T12:35:05.157Z,68.73
2023-02-19T12:37:39.250Z,68.96
2023-02-19T12:40:50.536Z,69.33
2023-02-19T12:43:22.552Z,69.70
2023-02-19T12:46:27.354Z,69.68
2023-02-19T12:49:10.731Z,69.64
2023-02-19T12:51:50.675Z,69.99
2023-02-19T12:54:51.993Z,70.75
2023-02-19T12:57:37.112Z,70.90
2023-02-19T13:00:39.842Z,71.29
2023-02-19T13:03:50.506Z,71.44
2023-02-19T13:06:36.813Z,71.45
2023-02-19T13:09:15.316Z,72.06
2023-02-19T13:12:29.853Z,72.02
2023-02-19T13:15:03.841Z,72.51
2023-02-19T13:17:44.181Z,72.65
2023-02-19T13:20:40.250Z,73.59
2023-02-19T13:23:53.878Z,73.45
2023-02-19T13:26:50.874Z,74.53
2023-02-19T13:29:37.220Z,74.83
2023-02-19T13:32:21.489Z,75.51
2023-02-19T13:35:12.355Z,75.42
2023-02-19T13:37:41.690Z,75.32
2023-02-19T13:40:25.262Z,75.93
2023-02-19T13:43:00.388Z,76.05
2023-02-19T13:45:46.248Z,76.57
2023-02-19T13:48:20.550Z,76.25
2023-02-19T13:50:49.659Z,75.74
2023-02-19T13:53:45.971Z,75.98
2023-02-19T13:56:35.355Z,75.65
2023-02-19T13:59:25.701Z,75.86
2023-02-19T14:01:57.023Z,75.74
2023-02-19T14:04:55.741Z,74.77
2023-02-19T14:07:27.053Z,74.21
2023-02-19T14:09:55.673Z,74.19
2023-02-19T14:12:37.757Z,73.89
2023-02-19T14:15:25.284Z,73.67
2023-02-19T14:17:55.474Z,73.41
2023-02-19T14:20:45.265Z,73.11
2023-02-19T14:23:26.190Z,73.22
2023-02-19T14:26:01.368Z,73.45
2023-02-19T14:28:44.213Z,73.04
2023-02-19T14:31:48.620Z,72.95
2023-02-19T14:34:22.991Z,72.22
2023-02-19T14:36:53.766Z,72.84
2023-02-19T14:39:25.348Z,72.14
2023-02-19T14:42:00.172Z,72.51
2023-02-19T14:44:58.550Z,73.16
2023-02-19T14:47:35.283Z,73.19
2023-02-19T14:50:12.892Z,72.88
2023-02-19T14:52:48.558Z,73.04
2023-02-19T14:55:40.539Z,72.62
2023-02-19T14:58:19.688Z,73.28
2023-02-19T15:00:48.602Z,73.55
2023-02-19T15:03:36.858Z,73.63
2023-02-19T15:06:12.175Z,73.93
2023-02-19T15:08:50.456Z,73.99
2023-02-19T15:11:26.384Z,74.30
2023-02-19T15:14:02.147Z,74.70
2023-02-19T15:16:33.304Z,74.70
2023-02-19T15:19:07.336Z,74.43
2023-02-19T15:21:43.056Z,74.86
2023-02-19T15:24:15.717Z,75.87
2023-02-19T15:26:54.302Z,75.97
2023-02-19T15:29:26.611Z,76.09
2023-02-19T15:31:57.775Z,76.26
2023-02-19T15:34:29.726Z,76.50
2023-02-19T15:37:08.247Z,76.83
2023-02-19T15:39:44.362Z,77.29
2023-02-19T15:42:21.164Z,77.89
2023-02-19T15:44:59.481Z,78.48
2023-02-19T15:48:02.531Z,78.69
2023-02-19T15:50:35.162Z,79.13
2023-02-19T15:53:17.388Z,79.44
2023-02-19T15:55:57.693Z,79.54
2023-02-19T15:58:42.879Z,79.53
2023-02-19T16:01:30.847Z,79.72
2023-02-19T16:03:59.676Z,79.67
2023-02-19T16:06:30.144Z,79.32
2023-02-19T16:09:02.264Z,79.38
2023-02-19T16:11:37.195Z,79.49
2023-02-19T16:14:35.857Z,79.09
2023-02-19T16:17:12.724Z,79.29
2023-02-19T16:19:54.276Z,79.23
2023-02-19T16:22:26.869Z,79.15
2023-02-19T16:25:06.018Z,78.73
2023-02-19T16:27:38.838Z,78.75
2023-02-19T16:30:34.171Z,78.83
2023-02-19T16:33:33.642Z,79.07
2023-02-19T16:36:32.642Z,79.01
2023-02-19T16:39:01.266Z,78.89
2023-02-19T16:41:30.010Z,78.61
2023-02-19T16:43:58.649Z,78.33
2023-02-19T16:46:27.358Z,78.02
2023-02-19T16:48:55.935Z,77.13
2023-02-19T16:51:27.546Z,76.39
2023-02-19T16:53:56.221Z,75.99
2023-02-19T16:56:25.662Z,75.11
2023-02-19T16:58:54.214Z,74.69
2023-02-19T17:01:23.034Z,73.55
2023-02-19T17:03:53.315Z,72.69
2023-02-19T17:06:22.132Z,72.50
2023-02-19T17:08:50.757Z,71.96
2023-02-19T17:11:19.549Z,71.97
2023-02-19T17:13:48.277Z,71.30
2023-02-19T17:16:27.793Z,70.89
2023-02-19T17:18:56.315Z,69.61
2023-02-19T17:21:28.737Z,69.48
2023-02-19T17:23:57.623Z,69.04
2023-02-19T17:26:30.517Z,68.44
2023-02-19T17:29:01.468Z,68.33
2023-02-19T17:31:30.335Z,68.25
2023-02-19T17:33:59.720Z,68.11
2023-02-19T17:36:32.631Z,67.50
2023-02-19T17:39:07.231Z,66.85
2023-02-19T17:41:36.096Z,67.21
2023-02-19T17:44:04.769Z,67.05
2023-02-19T17:46:34.202Z,67.17
2023-02-19T17:49:02.882Z,67.21
2023-02-19T17:51:31.455Z,67.24
2023-02-19T17:54:00.346Z,67.11
2023-02-19T17:56:29.035Z,67.14
2023-02-19T17:58:58.537Z,67.20
2023-02-19T18:01:27.108Z,67.10
2023-02-19T18:03:55.735Z,67.15
2023-02-19T18:06:24.425Z,68.92
2023-02-19T18:08:53.813Z,72.34
2023-02-19T18:11:23.813Z,75.03
2023-02-19T18:13:53.015Z,75.60
2023-02-19T18:16:22.225Z,78.10
2023-02-19T18:18:50.992Z,79.96
2023-02-19T18:21:19.663Z,81.45
2023-02-19T18:23:48.298Z,82.14
2023-02-19T18:26:20.952Z,81.43
2023-02-19T18:28:49.903Z,81.62
2023-02-19T18:31:18.650Z,81.59
2023-02-19T18:33:47.409Z,82.04
2023-02-19T18:36:16.249Z,81.97
2023-02-19T18:38:46.196Z,82.46
2023-02-19T18:41:19.573Z,82.45
2023-02-19T18:43:49.284Z,81.75
2023-02-19T18:46:21.282Z,81.65
2023-02-19T18:48:49.984Z,82.16
2023-02-19T18:51:18.608Z,82.19
2023-02-19T18:53:47.742Z,82.49
2023-02-19T18:56:17.007Z,82.70
2023-02-19T18:58:45.622Z,82.10
2023-02-19T19:01:14.568Z,82.25
2023-02-19T19:03:43.329Z,82.43
2023-02-19T19:06:11.883Z,81.56
2023-02-19T19:08:40.676Z,83.23
2023-02-19T19:11:09.655Z,84.24
2023-02-19T19:13:38.432Z,85.49
2023-02-19T19:16:07.202Z,85.97
2023-02-19T19:18:38.390Z,86.55
2023-02-19T19:21:09.845Z,88.74
2023-02-19T19:23:38.528Z,90.25
2023-02-19T19:26:07.837Z,90.63
2023-02-19T19:28:38.604Z,91.29
2023-02-19T19:31:08.917Z,92.20
2023-02-19T19:33:37.704Z,93.24
2023-02-19T19:36:07.381Z,94.13
2023-02-19T19:38:36.376Z,94.06
2023-02-19T19:41:05.869Z,94.18
2023-02-19T19:43:34.657Z,94.73
2023-02-19T19:46:04.374Z,95.47
2023-02-19T19:48:33.494Z,96.44
2023-02-19T19:51:02.258Z,96.95
2023-02-19T19:53:32.421Z,95.46
2023-02-19T19:56:01.865Z,95.17
2023-02-19T19:58:30.638Z,95.00
2023-02-19T20:01:01.902Z,93.89
2023-02-19T20:03:32.783Z,91.98
2023-02-19T20:06:02.407Z,90.72
2023-02-19T20:08:30.974Z,90.33
2023-02-19T20:10:59.529Z,88.65
2023-02-19T20:13:30.722Z,89.38
2023-02-19T20:15:59.376Z,89.23
2023-02-19T20:18:28.483Z,88.08
2023-02-19T20:20:57.096Z,87.90
2023-02-19T20:23:27.332Z,86.20
2023-02-19T20:25:57.790Z,85.16
2023-02-19T20:28:26.406Z,84.93
2023-02-19T20:30:55.342Z,83.90
2023-02-19T20:33:24.005Z,83.46
2023-02-19T20:35:52.794Z,83.66
2023-02-19T20:38:21.372Z,83.72
2023-02-19T20:40:49.973Z,83.49
2023-02-19T20:43:18.575Z,82.97
2023-02-19T20:45:48.017Z,82.97
2023-02-19T20:48:19.994Z,82.73
2023-02-19T20:50:48.828Z,83.19
2023-02-19T20:53:17.593Z,82.87
2023-02-19T20:55:46.208Z,82.69
2023-02-19T20:58:14.802Z,82.13
2023-02-19T21:00:43.524Z,81.82
2023-02-19T21:03:12.366Z,81.70
2023-02-19T21:05:41.592Z,82.20
2023-02-19T21:08:11.971Z,81.83
2023-02-19T21:10:40.787Z,82.49
2023-02-19T21:13:09.354Z,82.01
2023-02-19T21:15:38.088Z,82.27
2023-02-19T21:18:06.728Z,82.08
2023-02-19T21:20:35.377Z,82.65
2023-02-19T21:23:04.209Z,82.80
2023-02-19T21:25:33.524Z,82.37
2023-02-19T21:28:02.155Z,83.37
2023-02-19T21:30:31.541Z,83.57
2023-02-19T21:33:00.177Z,82.16
2023-02-19T21:35:29.525Z,82.99
2023-02-19T21:37:58.766Z,82.96
2023-02-19T21:40:29.170Z,82.23
2023-02-19T21:42:58.179Z,82.32
2023-02-19T21:45:26.875Z,81.56
2023-02-19T21:47:55.453Z,81.34
2023-02-19T21:50:24.141Z,80.71
2023-02-19T21:52:52.757Z,80.33
2023-02-19T21:55:21.392Z,80.08
2023-02-19T21:57:49.951Z,80.33
2023-02-19T22:00:19.164Z,80.18
2023-02-19T22:02:47.831Z,79.76
2023-02-19T22:05:16.921Z,80.44
2023-02-19T22:07:47.498Z,80.31
2023-02-19T22:10:16.999Z,80.37
2023-02-19T22:12:45.700Z,79.72
2023-02-19T22:15:15.365Z,79.79
2023-02-19T22:17:44.185Z,79.59
2023-02-19T22:20:13.088Z,79.87
2023-02-19T22:22:41.731Z,79.29
2023-02-19T22:25:10.264Z,78.88
2023-02-19T22:27:38.826Z,78.71
2023-02-19T22:30:09.095Z,78.26
2023-02-19T22:32:37.975Z,77.95
2023-02-19T22:35:07.227Z,77.89
2023-02-19T22:37:35.776Z,78.07
2023-02-19T22:40:04.614Z,77.74
2023-02-19T22:42:35.921Z,77.56
2023-02-19T22:45:06.741Z,77.90
2023-02-19T22:47:35.586Z,77.88
2023-02-19T22:50:04.852Z,77.50
2023-02-19T22:52:34.038Z,77.29
2023-02-19T22:55:04.097Z,76.96
2023-02-19T22:57:32.773Z,77.14
2023-02-19T23:00:01.564Z,77.23
2023-02-19T23:02:30.355Z,77.22
2023-02-19T23:04:59.142Z,76.73
2023-02-19T23:07:27.834Z,76.83
2023-02-19T23:09:56.616Z,77.23
2023-02-19T23:12:25.641Z,77.04
2023-02-19T23:14:54.500Z,76.72
2023-02-19T23:17:23.089Z,76.31
2023-02-19T23:19:51.777Z,76.67
2023-02-19T23:22:20.971Z,76.21
2023-02-19T23:24:49.900Z,76.13
2023-02-19T23:27:18.639Z,75.74
2023-02-19T23:29:47.440Z,75.61
2023-02-19T23:32:21.168Z,76.04
2023-02-19T23:34:51.569Z,75.98
2023-02-19T23:37:20.356Z,76.25
2023-02-19T23:39:49.138Z,76.00
2023-02-19T23:42:17.887Z,76.34
2023-02-19T23:44:47.741Z,76.22
2023-02-19T23:47:16.485Z,76.41
2023-02-19T23:49:45.246Z,76.48
2023-02-19T23:52:14.139Z,76.44
2023-02-19T23:54:42.921Z,76.95
2023-02-19T23:57:12.999Z,77.21
2023-02-19T23:59:41.690Z,77.44
